sensor_id;sensor_type;location;lat;lon;timestamp;temperature;humidity
30308;DHT22;17114;52.314;8.910;2023-11-19T00:00:09;8.70;99.90
30308;DHT22;17114;52.314;8.910;2023-11-19T00:02:40;8.70;99.90
30308;DHT22;17114;52.314;8.910;2023-11-19T00:05:08;8.80;99.90
30308;DHT22;17114;52.314;8.910;2023-11-19T00:07:36;8.80;99.90
30308;DHT22;17114;52.314;8.910;2023-11-19T00:10:03;8.90;99.90
30308;DHT22;17114;52.314;8.910;2023-11-19T00:12:33;8.90;99.90
30308;DHT22;17114;52.314;8.910;2023-11-19T00:15:00;9.00;99.90
30308;DHT22;17114;52.314;8.910;2023-11-19T00:17:28;9.00;99.90
30308;DHT22;17114;52.314;8.910;2023-11-19T00:19:55;9.00;99.90
30308;DHT22;17114;52.314;8.910;2023-11-19T00:22:21;9.00;99.90
30308;DHT22;17114;52.314;8.910;2023-11-19T00:24:49;9.00;99.90
30308;DHT22;17114;52.314;8.910;2023-11-19T00:27:16;9.10;99.90
30308;DHT22;17114;52.314;8.910;2023-11-19T00:29:44;9.10;99.90
30308;DHT22;17114;52.314;8.910;2023-11-19T00:32:12;9.10;99.90
30308;DHT22;17114;52.314;8.910;2023-11-19T00:34:39;9.10;99.90
30308;DHT22;17114;52.314;8.910;2023-11-19T00:37:06;9.20;99.90
30308;DHT22;17114;52.314;8.910;2023-11-19T00:39:33;9.20;99.90
30308;DHT22;17114;52.314;8.910;2023-11-19T00:42:00;9.20;99.90
30308;DHT22;17114;52.314;8.910;2023-11-19T00:44:27;9.30;99.90
30308;DHT22;17114;52.314;8.910;2023-11-19T00:46:54;9.20;99.90
30308;DHT22;17114;52.314;8.910;2023-11-19T00:49:21;9.30;99.90
30308;DHT22;17114;52.314;8.910;2023-11-19T00:51:48;9.30;99.90
30308;DHT22;17114;52.314;8.910;2023-11-19T00:54:16;9.30;99.90
30308;DHT22;17114;52.314;8.910;2023-11-19T00:56:42;9.40;99.90
30308;DHT22;17114;52.314;8.910;2023-11-19T00:59:09;9.40;99.90
30308;DHT22;17114;52.314;8.910;2023-11-19T01:01:36;9.40;99.90
30308;DHT22;17114;52.314;8.910;2023-11-19T01:04:03;9.50;99.90
30308;DHT22;17114;52.314;8.910;2023-11-19T01:06:31;9.50;99.90
30308;DHT22;17114;52.314;8.910;2023-11-19T01:08:58;9.70;99.90
30308;DHT22;17114;52.314;8.910;2023-11-19T01:11:25;9.40;99.90
30308;DHT22;17114;52.314;8.910;2023-11-19T01:13:52;9.60;99.90
30308;DHT22;17114;52.314;8.910;2023-11-19T01:16:19;9.60;99.90
30308;DHT22;17114;52.314;8.910;2023-11-19T01:18:47;9.60;99.90
30308;DHT22;17114;52.314;8.910;2023-11-19T01:21:15;9.60;99.90
30308;DHT22;17114;52.314;8.910;2023-11-19T01:23:43;9.50;99.90
30308;DHT22;17114;52.314;8.910;2023-11-19T01:26:13;9.60;99.90
30308;DHT22;17114;52.314;8.910;2023-11-19T01:28:40;9.70;99.90
30308;DHT22;17114;52.314;8.910;2023-11-19T01:31:17;9.70;99.90
30308;DHT22;17114;52.314;8.910;2023-11-19T01:33:44;9.70;99.90
30308;DHT22;17114;52.314;8.910;2023-11-19T01:36:13;9.70;99.90
30308;DHT22;17114;52.314;8.910;2023-11-19T01:38:41;9.80;99.90
30308;DHT22;17114;52.314;8.910;2023-11-19T01:41:08;9.80;99.90
30308;DHT22;17114;52.314;8.910;2023-11-19T01:43:37;9.80;99.90
30308;DHT22;17114;52.314;8.910;2023-11-19T01:46:05;9.80;99.90
30308;DHT22;17114;52.314;8.910;2023-11-19T01:48:34;9.80;99.90
30308;DHT22;17114;52.314;8.910;2023-11-19T01:51:03;9.80;99.90
30308;DHT22;17114;52.314;8.910;2023-11-19T01:53:31;9.80;99.90
30308;DHT22;17114;52.314;8.910;2023-11-19T01:55:58;9.80;99.90
30308;DHT22;17114;52.314;8.910;2023-11-19T01:58:25;9.90;99.90
30308;DHT22;17114;52.314;8.910;2023-11-19T02:00:53;9.90;99.90
30308;DHT22;17114;52.314;8.910;2023-11-19T02:03:21;9.70;99.90
30308;DHT22;17114;52.314;8.910;2023-11-19T02:05:49;9.90;99.90
30308;DHT22;17114;52.314;8.910;2023-11-19T02:08:17;9.90;99.90
30308;DHT22;17114;52.314;8.910;2023-11-19T02:10:44;9.90;99.90
30308;DHT22;17114;52.314;8.910;2023-11-19T02:13:11;10.00;99.90
30308;DHT22;17114;52.314;8.910;2023-11-19T02:15:41;9.90;99.90
30308;DHT22;17114;52.314;8.910;2023-11-19T02:18:27;10.10;99.90
30308;DHT22;17114;52.314;8.910;2023-11-19T02:20:58;10.10;99.90
30308;DHT22;17114;52.314;8.910;2023-11-19T02:23:30;10.10;99.90
30308;DHT22;17114;52.314;8.910;2023-11-19T02:26:28;10.10;99.90
30308;DHT22;17114;52.314;8.910;2023-11-19T02:28:59;10.20;99.90
30308;DHT22;17114;52.314;8.910;2023-11-19T02:31:26;10.20;99.90
30308;DHT22;17114;52.314;8.910;2023-11-19T02:33:54;10.30;99.90
30308;DHT22;17114;52.314;8.910;2023-11-19T02:36:21;10.30;99.90
30308;DHT22;17114;52.314;8.910;2023-11-19T02:38:48;10.30;99.90
30308;DHT22;17114;52.314;8.910;2023-11-19T02:41:15;10.30;99.90
30308;DHT22;17114;52.314;8.910;2023-11-19T02:43:42;10.30;99.90
30308;DHT22;17114;52.314;8.910;2023-11-19T02:46:08;10.30;99.90
30308;DHT22;17114;52.314;8.910;2023-11-19T02:48:38;10.30;99.90
30308;DHT22;17114;52.314;8.910;2023-11-19T02:51:06;10.40;99.90
30308;DHT22;17114;52.314;8.910;2023-11-19T02:53:36;10.40;99.90
30308;DHT22;17114;52.314;8.910;2023-11-19T02:56:07;10.50;99.90
30308;DHT22;17114;52.314;8.910;2023-11-19T02:58:52;10.50;99.90
30308;DHT22;17114;52.314;8.910;2023-11-19T03:01:23;10.50;99.90
30308;DHT22;17114;52.314;8.910;2023-11-19T03:03:57;10.60;99.90
30308;DHT22;17114;52.314;8.910;2023-11-19T03:06:25;10.50;99.90
30308;DHT22;17114;52.314;8.910;2023-11-19T03:08:52;10.60;99.90
30308;DHT22;17114;52.314;8.910;2023-11-19T03:11:19;10.60;99.90
30308;DHT22;17114;52.314;8.910;2023-11-19T03:13:46;10.60;99.90
30308;DHT22;17114;52.314;8.910;2023-11-19T03:16:13;10.60;99.90
30308;DHT22;17114;52.314;8.910;2023-11-19T03:18:40;10.70;99.90
30308;DHT22;17114;52.314;8.910;2023-11-19T03:21:07;10.80;99.90
30308;DHT22;17114;52.314;8.910;2023-11-19T03:23:35;10.70;99.90
30308;DHT22;17114;52.314;8.910;2023-11-19T03:26:03;10.80;99.90
30308;DHT22;17114;52.314;8.910;2023-11-19T03:28:32;10.80;99.90
30308;DHT22;17114;52.314;8.910;2023-11-19T03:30:58;10.80;99.90
30308;DHT22;17114;52.314;8.910;2023-11-19T03:33:25;10.90;99.90
30308;DHT22;17114;52.314;8.910;2023-11-19T03:35:56;10.90;99.90
30308;DHT22;17114;52.314;8.910;2023-11-19T03:38:24;10.90;99.90
30308;DHT22;17114;52.314;8.910;2023-11-19T03:40:51;10.90;99.90
30308;DHT22;17114;52.314;8.910;2023-11-19T03:43:18;10.90;99.90
30308;DHT22;17114;52.314;8.910;2023-11-19T03:45:46;11.00;99.90
30308;DHT22;17114;52.314;8.910;2023-11-19T03:48:13;11.00;99.90
30308;DHT22;17114;52.314;8.910;2023-11-19T03:50:43;10.90;99.90
30308;DHT22;17114;52.314;8.910;2023-11-19T03:53:11;11.10;99.90
30308;DHT22;17114;52.314;8.910;2023-11-19T03:55:38;11.10;99.90
30308;DHT22;17114;52.314;8.910;2023-11-19T03:58:05;11.30;99.90
30308;DHT22;17114;52.314;8.910;2023-11-19T04:00:32;11.10;99.90
30308;DHT22;17114;52.314;8.910;2023-11-19T04:02:59;11.20;99.90
30308;DHT22;17114;52.314;8.910;2023-11-19T04:05:26;11.20;99.90
30308;DHT22;17114;52.314;8.910;2023-11-19T04:07:53;11.30;99.90
30308;DHT22;17114;52.314;8.910;2023-11-19T04:10:20;11.30;99.90
30308;DHT22;17114;52.314;8.910;2023-11-19T04:12:47;11.30;99.90
30308;DHT22;17114;52.314;8.910;2023-11-19T04:15:14;11.30;99.90
30308;DHT22;17114;52.314;8.910;2023-11-19T04:17:41;11.40;99.90
30308;DHT22;17114;52.314;8.910;2023-11-19T04:20:08;11.40;99.90
30308;DHT22;17114;52.314;8.910;2023-11-19T04:22:39;11.40;99.90
30308;DHT22;17114;52.314;8.910;2023-11-19T04:25:06;11.50;99.90
30308;DHT22;17114;52.314;8.910;2023-11-19T04:27:33;11.50;99.90
30308;DHT22;17114;52.314;8.910;2023-11-19T04:30:00;11.30;99.90
30308;DHT22;17114;52.314;8.910;2023-11-19T04:32:28;11.50;99.90
30308;DHT22;17114;52.314;8.910;2023-11-19T04:34:55;11.50;99.90
30308;DHT22;17114;52.314;8.910;2023-11-19T04:37:22;11.50;99.90
30308;DHT22;17114;52.314;8.910;2023-11-19T04:39:49;11.50;99.90
30308;DHT22;17114;52.314;8.910;2023-11-19T04:42:17;11.50;99.90
30308;DHT22;17114;52.314;8.910;2023-11-19T04:44:44;11.50;99.90
30308;DHT22;17114;52.314;8.910;2023-11-19T04:47:11;11.40;99.90
30308;DHT22;17114;52.314;8.910;2023-11-19T04:49:41;11.50;99.90
30308;DHT22;17114;52.314;8.910;2023-11-19T04:52:11;11.50;99.90
30308;DHT22;17114;52.314;8.910;2023-11-19T04:54:42;11.70;99.90
30308;DHT22;17114;52.314;8.910;2023-11-19T04:57:12;11.50;99.90
30308;DHT22;17114;52.314;8.910;2023-11-19T04:59:39;11.60;99.90
30308;DHT22;17114;52.314;8.910;2023-11-19T05:02:06;11.60;99.90
30308;DHT22;17114;52.314;8.910;2023-11-19T05:04:33;11.50;99.90
30308;DHT22;17114;52.314;8.910;2023-11-19T05:07:00;11.60;99.90
30308;DHT22;17114;52.314;8.910;2023-11-19T05:09:27;11.60;99.90
30308;DHT22;17114;52.314;8.910;2023-11-19T05:11:54;11.70;99.90
30308;DHT22;17114;52.314;8.910;2023-11-19T05:14:21;11.70;99.90
30308;DHT22;17114;52.314;8.910;2023-11-19T05:16:48;11.60;99.90
30308;DHT22;17114;52.314;8.910;2023-11-19T05:19:16;11.70;99.90
30308;DHT22;17114;52.314;8.910;2023-11-19T05:21:43;11.70;99.90
30308;DHT22;17114;52.314;8.910;2023-11-19T05:24:10;11.70;99.90
30308;DHT22;17114;52.314;8.910;2023-11-19T05:26:38;11.60;99.90
30308;DHT22;17114;52.314;8.910;2023-11-19T05:29:05;11.60;99.90
30308;DHT22;17114;52.314;8.910;2023-11-19T05:31:32;11.50;99.90
30308;DHT22;17114;52.314;8.910;2023-11-19T05:34:03;11.60;99.90
30308;DHT22;17114;52.314;8.910;2023-11-19T05:36:30;11.60;99.90
30308;DHT22;17114;52.314;8.910;2023-11-19T05:38:57;11.60;99.90
30308;DHT22;17114;52.314;8.910;2023-11-19T05:41:24;11.70;99.90
30308;DHT22;17114;52.314;8.910;2023-11-19T05:43:51;11.70;99.90
30308;DHT22;17114;52.314;8.910;2023-11-19T05:46:18;11.70;99.90
30308;DHT22;17114;52.314;8.910;2023-11-19T05:48:47;11.70;99.90
30308;DHT22;17114;52.314;8.910;2023-11-19T05:51:14;11.80;99.90
30308;DHT22;17114;52.314;8.910;2023-11-19T05:53:44;11.70;99.90
30308;DHT22;17114;52.314;8.910;2023-11-19T05:56:16;11.70;99.90
30308;DHT22;17114;52.314;8.910;2023-11-19T05:58:48;11.70;99.90
30308;DHT22;17114;52.314;8.910;2023-11-19T06:01:16;11.60;99.90
30308;DHT22;17114;52.314;8.910;2023-11-19T06:03:43;11.60;99.90
30308;DHT22;17114;52.314;8.910;2023-11-19T06:06:14;11.70;99.90
30308;DHT22;17114;52.314;8.910;2023-11-19T06:08:40;11.60;99.90
30308;DHT22;17114;52.314;8.910;2023-11-19T06:11:10;11.70;99.90
30308;DHT22;17114;52.314;8.910;2023-11-19T06:13:41;11.70;99.90
30308;DHT22;17114;52.314;8.910;2023-11-19T06:16:09;11.60;99.90
30308;DHT22;17114;52.314;8.910;2023-11-19T06:18:36;11.70;99.90
30308;DHT22;17114;52.314;8.910;2023-11-19T06:21:04;11.50;99.90
30308;DHT22;17114;52.314;8.910;2023-11-19T06:23:31;11.70;99.90
30308;DHT22;17114;52.314;8.910;2023-11-19T06:25:58;11.60;99.90
30308;DHT22;17114;52.314;8.910;2023-11-19T06:28:25;11.60;99.90
30308;DHT22;17114;52.314;8.910;2023-11-19T06:30:52;11.60;99.90
30308;DHT22;17114;52.314;8.910;2023-11-19T06:33:19;11.60;99.90
30308;DHT22;17114;52.314;8.910;2023-11-19T06:35:46;11.50;99.90
30308;DHT22;17114;52.314;8.910;2023-11-19T06:38:12;11.50;99.90
30308;DHT22;17114;52.314;8.910;2023-11-19T06:40:40;11.50;99.90
30308;DHT22;17114;52.314;8.910;2023-11-19T06:43:07;11.50;99.90
30308;DHT22;17114;52.314;8.910;2023-11-19T06:45:37;11.40;99.90
30308;DHT22;17114;52.314;8.910;2023-11-19T06:48:04;11.40;99.90
30308;DHT22;17114;52.314;8.910;2023-11-19T06:50:32;11.40;99.90
30308;DHT22;17114;52.314;8.910;2023-11-19T06:52:59;11.40;99.90
30308;DHT22;17114;52.314;8.910;2023-11-19T06:55:29;11.40;99.90
30308;DHT22;17114;52.314;8.910;2023-11-19T06:57:56;11.40;99.90
30308;DHT22;17114;52.314;8.910;2023-11-19T07:00:23;11.40;99.90
30308;DHT22;17114;52.314;8.910;2023-11-19T07:02:49;11.40;99.90
30308;DHT22;17114;52.314;8.910;2023-11-19T07:05:18;11.40;99.90
30308;DHT22;17114;52.314;8.910;2023-11-19T07:07:45;11.40;99.90
30308;DHT22;17114;52.314;8.910;2023-11-19T07:10:13;11.40;99.90
30308;DHT22;17114;52.314;8.910;2023-11-19T07:12:40;11.60;99.90
30308;DHT22;17114;52.314;8.910;2023-11-19T07:15:07;11.50;99.90
30308;DHT22;17114;52.314;8.910;2023-11-19T07:17:34;11.40;99.90
30308;DHT22;17114;52.314;8.910;2023-11-19T07:20:02;11.30;99.90
30308;DHT22;17114;52.314;8.910;2023-11-19T07:22:29;11.40;99.90
30308;DHT22;17114;52.314;8.910;2023-11-19T07:24:57;11.40;99.90
30308;DHT22;17114;52.314;8.910;2023-11-19T07:27:23;11.30;99.90
30308;DHT22;17114;52.314;8.910;2023-11-19T07:29:51;11.40;99.90
30308;DHT22;17114;52.314;8.910;2023-11-19T07:32:18;11.50;99.90
30308;DHT22;17114;52.314;8.910;2023-11-19T07:34:45;11.50;99.90
30308;DHT22;17114;52.314;8.910;2023-11-19T07:37:11;11.60;99.90
30308;DHT22;17114;52.314;8.910;2023-11-19T07:39:39;11.50;99.90
30308;DHT22;17114;52.314;8.910;2023-11-19T07:42:08;11.40;99.90
30308;DHT22;17114;52.314;8.910;2023-11-19T07:44:36;11.40;99.90
30308;DHT22;17114;52.314;8.910;2023-11-19T07:47:03;11.40;99.90
30308;DHT22;17114;52.314;8.910;2023-11-19T07:49:30;11.40;99.90
30308;DHT22;17114;52.314;8.910;2023-11-19T07:51:58;11.40;99.90
30308;DHT22;17114;52.314;8.910;2023-11-19T07:54:24;11.30;99.90
30308;DHT22;17114;52.314;8.910;2023-11-19T07:56:51;11.30;99.90
30308;DHT22;17114;52.314;8.910;2023-11-19T07:59:18;11.30;99.90
30308;DHT22;17114;52.314;8.910;2023-11-19T08:01:45;11.30;99.90
30308;DHT22;17114;52.314;8.910;2023-11-19T08:04:12;11.40;99.90
30308;DHT22;17114;52.314;8.910;2023-11-19T08:06:40;11.40;99.90
30308;DHT22;17114;52.314;8.910;2023-11-19T08:09:06;11.40;99.90
30308;DHT22;17114;52.314;8.910;2023-11-19T08:11:33;11.40;99.90
30308;DHT22;17114;52.314;8.910;2023-11-19T08:14:00;11.50;99.90
30308;DHT22;17114;52.314;8.910;2023-11-19T08:16:27;11.40;99.90
30308;DHT22;17114;52.314;8.910;2023-11-19T08:18:54;11.40;99.90
30308;DHT22;17114;52.314;8.910;2023-11-19T08:21:21;11.50;99.90
30308;DHT22;17114;52.314;8.910;2023-11-19T08:23:49;11.40;99.90
30308;DHT22;17114;52.314;8.910;2023-11-19T08:26:16;11.50;99.90
30308;DHT22;17114;52.314;8.910;2023-11-19T08:28:47;11.40;99.90
30308;DHT22;17114;52.314;8.910;2023-11-19T08:31:14;11.50;99.90
30308;DHT22;17114;52.314;8.910;2023-11-19T08:33:41;11.50;99.90
30308;DHT22;17114;52.314;8.910;2023-11-19T08:36:08;11.50;99.90
30308;DHT22;17114;52.314;8.910;2023-11-19T08:38:35;11.50;99.90
30308;DHT22;17114;52.314;8.910;2023-11-19T08:41:02;11.50;99.90
30308;DHT22;17114;52.314;8.910;2023-11-19T08:43:29;11.50;99.90
30308;DHT22;17114;52.314;8.910;2023-11-19T08:45:58;11.50;99.90
30308;DHT22;17114;52.314;8.910;2023-11-19T08:48:25;11.70;99.90
30308;DHT22;17114;52.314;8.910;2023-11-19T08:50:52;11.50;99.90
30308;DHT22;17114;52.314;8.910;2023-11-19T08:53:19;11.50;99.90
30308;DHT22;17114;52.314;8.910;2023-11-19T08:55:47;11.60;99.90
30308;DHT22;17114;52.314;8.910;2023-11-19T08:58:14;11.60;99.90
30308;DHT22;17114;52.314;8.910;2023-11-19T09:00:41;11.80;99.90
30308;DHT22;17114;52.314;8.910;2023-11-19T09:03:08;11.80;99.90
30308;DHT22;17114;52.314;8.910;2023-11-19T09:05:36;11.80;99.90
30308;DHT22;17114;52.314;8.910;2023-11-19T09:08:04;12.00;99.90
30308;DHT22;17114;52.314;8.910;2023-11-19T09:10:31;12.10;99.90
30308;DHT22;17114;52.314;8.910;2023-11-19T09:12:58;12.20;99.90
30308;DHT22;17114;52.314;8.910;2023-11-19T09:15:25;12.30;99.90
30308;DHT22;17114;52.314;8.910;2023-11-19T09:17:52;12.50;99.90
30308;DHT22;17114;52.314;8.910;2023-11-19T09:20:19;12.60;99.90
30308;DHT22;17114;52.314;8.910;2023-11-19T09:22:46;12.80;99.90
30308;DHT22;17114;52.314;8.910;2023-11-19T09:25:13;12.90;99.90
30308;DHT22;17114;52.314;8.910;2023-11-19T09:27:44;13.10;99.90
30308;DHT22;17114;52.314;8.910;2023-11-19T09:30:11;13.30;99.90
30308;DHT22;17114;52.314;8.910;2023-11-19T09:32:39;13.30;99.90
30308;DHT22;17114;52.314;8.910;2023-11-19T09:35:07;13.10;99.90
30308;DHT22;17114;52.314;8.910;2023-11-19T09:37:35;12.90;99.90
30308;DHT22;17114;52.314;8.910;2023-11-19T09:40:02;12.70;99.90
30308;DHT22;17114;52.314;8.910;2023-11-19T09:42:29;12.60;99.90
30308;DHT22;17114;52.314;8.910;2023-11-19T09:44:59;12.50;99.90
30308;DHT22;17114;52.314;8.910;2023-11-19T09:47:26;12.50;99.90
30308;DHT22;17114;52.314;8.910;2023-11-19T09:49:54;12.40;99.90
30308;DHT22;17114;52.314;8.910;2023-11-19T09:52:24;12.40;99.90
30308;DHT22;17114;52.314;8.910;2023-11-19T09:54:51;12.40;99.90
30308;DHT22;17114;52.314;8.910;2023-11-19T09:57:18;12.30;99.90
30308;DHT22;17114;52.314;8.910;2023-11-19T09:59:46;12.30;99.90
30308;DHT22;17114;52.314;8.910;2023-11-19T10:02:14;12.20;99.90
30308;DHT22;17114;52.314;8.910;2023-11-19T10:04:43;12.10;99.90
30308;DHT22;17114;52.314;8.910;2023-11-19T10:07:11;11.90;99.90
30308;DHT22;17114;52.314;8.910;2023-11-19T10:09:38;11.70;99.90
30308;DHT22;17114;52.314;8.910;2023-11-19T10:12:05;11.70;99.90
30308;DHT22;17114;52.314;8.910;2023-11-19T10:14:34;11.70;99.90
30308;DHT22;17114;52.314;8.910;2023-11-19T10:17:04;11.80;99.90
30308;DHT22;17114;52.314;8.910;2023-11-19T10:19:33;12.10;99.90
30308;DHT22;17114;52.314;8.910;2023-11-19T10:22:06;12.30;99.90
30308;DHT22;17114;52.314;8.910;2023-11-19T10:24:42;12.50;99.90
30308;DHT22;17114;52.314;8.910;2023-11-19T10:27:15;12.60;99.90
30308;DHT22;17114;52.314;8.910;2023-11-19T10:29:46;12.60;99.90
30308;DHT22;17114;52.314;8.910;2023-11-19T10:32:14;12.50;99.90
30308;DHT22;17114;52.314;8.910;2023-11-19T10:35:04;12.50;99.90
30308;DHT22;17114;52.314;8.910;2023-11-19T10:37:32;12.60;99.90
30308;DHT22;17114;52.314;8.910;2023-11-19T10:40:02;12.70;99.90
30308;DHT22;17114;52.314;8.910;2023-11-19T10:42:32;12.70;99.90
30308;DHT22;17114;52.314;8.910;2023-11-19T10:44:58;12.80;99.90
30308;DHT22;17114;52.314;8.910;2023-11-19T10:47:25;13.00;99.90
30308;DHT22;17114;52.314;8.910;2023-11-19T10:49:55;13.00;99.90
30308;DHT22;17114;52.314;8.910;2023-11-19T10:52:23;13.00;99.90
30308;DHT22;17114;52.314;8.910;2023-11-19T10:54:51;13.10;99.90
30308;DHT22;17114;52.314;8.910;2023-11-19T10:57:22;13.00;99.90
30308;DHT22;17114;52.314;8.910;2023-11-19T10:59:55;12.90;99.90
30308;DHT22;17114;52.314;8.910;2023-11-19T11:02:29;12.80;99.90
30308;DHT22;17114;52.314;8.910;2023-11-19T11:04:56;12.70;99.90
30308;DHT22;17114;52.314;8.910;2023-11-19T11:07:24;12.60;99.90
30308;DHT22;17114;52.314;8.910;2023-11-19T11:10:05;12.70;99.90
30308;DHT22;17114;52.314;8.910;2023-11-19T11:12:40;12.60;99.90
30308;DHT22;17114;52.314;8.910;2023-11-19T11:15:11;12.80;99.90
30308;DHT22;17114;52.314;8.910;2023-11-19T11:17:44;12.90;99.90
30308;DHT22;17114;52.314;8.910;2023-11-19T11:20:12;13.20;99.90
30308;DHT22;17114;52.314;8.910;2023-11-19T11:23:02;13.40;99.90
30308;DHT22;17114;52.314;8.910;2023-11-19T11:36:31;13.60;99.90
30308;DHT22;17114;52.314;8.910;2023-11-19T11:39:02;13.20;99.90
30308;DHT22;17114;52.314;8.910;2023-11-19T11:41:34;12.90;99.90
30308;DHT22;17114;52.314;8.910;2023-11-19T11:44:01;12.70;99.90
30308;DHT22;17114;52.314;8.910;2023-11-19T11:49:08;12.20;99.90
30308;DHT22;17114;52.314;8.910;2023-11-19T11:57:11;11.90;99.90
30308;DHT22;17114;52.314;8.910;2023-11-19T11:59:46;11.90;99.90
30308;DHT22;17114;52.314;8.910;2023-11-19T12:02:21;11.90;99.90
30308;DHT22;17114;52.314;8.910;2023-11-19T12:04:50;12.00;99.90
30308;DHT22;17114;52.314;8.910;2023-11-19T12:07:21;12.10;99.90
30308;DHT22;17114;52.314;8.910;2023-11-19T12:10:09;12.00;99.90
30308;DHT22;17114;52.314;8.910;2023-11-19T12:12:40;11.90;99.90
30308;DHT22;17114;52.314;8.910;2023-11-19T12:15:09;11.70;99.90
30308;DHT22;17114;52.314;8.910;2023-11-19T12:20:06;11.60;99.90
30308;DHT22;17114;52.314;8.910;2023-11-19T12:22:38;11.60;99.90
30308;DHT22;17114;52.314;8.910;2023-11-19T12:25:08;11.40;99.90
30308;DHT22;17114;52.314;8.910;2023-11-19T12:27:36;11.40;99.90
30308;DHT22;17114;52.314;8.910;2023-11-19T12:30:04;11.40;99.90
30308;DHT22;17114;52.314;8.910;2023-11-19T12:32:41;11.60;99.90
30308;DHT22;17114;52.314;8.910;2023-11-19T12:35:09;11.70;99.90
30308;DHT22;17114;52.314;8.910;2023-11-19T12:37:43;11.80;99.90
30308;DHT22;17114;52.314;8.910;2023-11-19T12:40:15;11.80;99.90
30308;DHT22;17114;52.314;8.910;2023-11-19T12:42:45;11.90;99.90
30308;DHT22;17114;52.314;8.910;2023-11-19T12:45:12;11.90;99.90
30308;DHT22;17114;52.314;8.910;2023-11-19T12:47:40;12.00;99.90
30308;DHT22;17114;52.314;8.910;2023-11-19T12:50:08;12.00;99.90
30308;DHT22;17114;52.314;8.910;2023-11-19T12:52:36;12.00;99.90
30308;DHT22;17114;52.314;8.910;2023-11-19T12:55:05;12.00;99.90
30308;DHT22;17114;52.314;8.910;2023-11-19T12:57:42;11.90;99.90
30308;DHT22;17114;52.314;8.910;2023-11-19T13:00:24;11.90;99.90
30308;DHT22;17114;52.314;8.910;2023-11-19T13:02:53;11.90;99.90
30308;DHT22;17114;52.314;8.910;2023-11-19T13:05:34;11.90;99.90
30308;DHT22;17114;52.314;8.910;2023-11-19T13:08:06;11.90;99.90
30308;DHT22;17114;52.314;8.910;2023-11-19T13:13:17;11.90;99.90
30308;DHT22;17114;52.314;8.910;2023-11-19T13:15:45;11.90;99.90
30308;DHT22;17114;52.314;8.910;2023-11-19T13:18:15;11.90;99.90
30308;DHT22;17114;52.314;8.910;2023-11-19T13:20:43;11.90;99.90
30308;DHT22;17114;52.314;8.910;2023-11-19T13:23:10;12.00;99.90
30308;DHT22;17114;52.314;8.910;2023-11-19T13:25:37;12.00;99.90
30308;DHT22;17114;52.314;8.910;2023-11-19T13:28:04;12.10;99.90
30308;DHT22;17114;52.314;8.910;2023-11-19T13:30:32;12.20;99.90
30308;DHT22;17114;52.314;8.910;2023-11-19T13:33:00;12.20;99.90
30308;DHT22;17114;52.314;8.910;2023-11-19T13:35:28;12.20;99.90
30308;DHT22;17114;52.314;8.910;2023-11-19T13:37:55;12.20;99.90
30308;DHT22;17114;52.314;8.910;2023-11-19T13:40:21;12.10;99.90
30308;DHT22;17114;52.314;8.910;2023-11-19T13:42:51;12.30;99.90
30308;DHT22;17114;52.314;8.910;2023-11-19T13:45:18;12.30;99.90
30308;DHT22;17114;52.314;8.910;2023-11-19T13:47:47;12.30;99.90
30308;DHT22;17114;52.314;8.910;2023-11-19T13:50:15;12.20;99.90
30308;DHT22;17114;52.314;8.910;2023-11-19T13:52:44;12.10;99.90
30308;DHT22;17114;52.314;8.910;2023-11-19T13:55:14;12.00;99.90
30308;DHT22;17114;52.314;8.910;2023-11-19T13:57:42;12.00;99.90
30308;DHT22;17114;52.314;8.910;2023-11-19T14:00:11;12.00;99.90
30308;DHT22;17114;52.314;8.910;2023-11-19T14:02:43;12.00;99.90
30308;DHT22;17114;52.314;8.910;2023-11-19T14:05:10;11.90;99.90
30308;DHT22;17114;52.314;8.910;2023-11-19T14:07:41;11.90;99.90
30308;DHT22;17114;52.314;8.910;2023-11-19T14:10:08;12.00;99.90
30308;DHT22;17114;52.314;8.910;2023-11-19T14:12:37;12.10;99.90
30308;DHT22;17114;52.314;8.910;2023-11-19T14:15:05;12.20;99.90
30308;DHT22;17114;52.314;8.910;2023-11-19T14:17:33;12.20;99.90
30308;DHT22;17114;52.314;8.910;2023-11-19T14:20:01;12.20;99.90
30308;DHT22;17114;52.314;8.910;2023-11-19T14:22:29;12.40;99.90
30308;DHT22;17114;52.314;8.910;2023-11-19T14:24:57;12.30;99.90
30308;DHT22;17114;52.314;8.910;2023-11-19T14:27:24;12.20;99.90
30308;DHT22;17114;52.314;8.910;2023-11-19T14:29:51;12.30;99.90
30308;DHT22;17114;52.314;8.910;2023-11-19T14:32:18;12.10;99.90
30308;DHT22;17114;52.314;8.910;2023-11-19T14:34:45;12.10;99.90
30308;DHT22;17114;52.314;8.910;2023-11-19T14:37:12;11.90;99.90
30308;DHT22;17114;52.314;8.910;2023-11-19T14:39:39;11.90;99.90
30308;DHT22;17114;52.314;8.910;2023-11-19T14:42:06;11.90;99.90
30308;DHT22;17114;52.314;8.910;2023-11-19T14:44:33;11.80;99.90
30308;DHT22;17114;52.314;8.910;2023-11-19T14:47:00;11.80;99.90
30308;DHT22;17114;52.314;8.910;2023-11-19T14:49:29;11.80;99.90
30308;DHT22;17114;52.314;8.910;2023-11-19T14:51:56;11.80;99.90
30308;DHT22;17114;52.314;8.910;2023-11-19T14:54:42;11.70;99.90
30308;DHT22;17114;52.314;8.910;2023-11-19T14:57:09;11.70;99.90
30308;DHT22;17114;52.314;8.910;2023-11-19T14:59:39;11.60;99.90
30308;DHT22;17114;52.314;8.910;2023-11-19T15:02:07;11.60;99.90
30308;DHT22;17114;52.314;8.910;2023-11-19T15:04:34;11.60;99.90
30308;DHT22;17114;52.314;8.910;2023-11-19T15:07:01;11.50;99.90
30308;DHT22;17114;52.314;8.910;2023-11-19T15:09:28;11.50;99.90
30308;DHT22;17114;52.314;8.910;2023-11-19T15:11:55;11.50;99.90
30308;DHT22;17114;52.314;8.910;2023-11-19T15:14:22;11.50;99.90
30308;DHT22;17114;52.314;8.910;2023-11-19T15:16:49;11.50;99.90
30308;DHT22;17114;52.314;8.910;2023-11-19T15:19:18;11.50;99.90
30308;DHT22;17114;52.314;8.910;2023-11-19T15:21:46;11.50;99.90
30308;DHT22;17114;52.314;8.910;2023-11-19T15:24:14;11.50;99.90
30308;DHT22;17114;52.314;8.910;2023-11-19T15:26:41;11.60;99.90
30308;DHT22;17114;52.314;8.910;2023-11-19T15:29:08;11.40;99.90
30308;DHT22;17114;52.314;8.910;2023-11-19T15:31:36;11.40;99.90
30308;DHT22;17114;52.314;8.910;2023-11-19T15:34:03;11.40;99.90
30308;DHT22;17114;52.314;8.910;2023-11-19T15:36:30;11.40;99.90
30308;DHT22;17114;52.314;8.910;2023-11-19T15:38:58;11.40;99.90
30308;DHT22;17114;52.314;8.910;2023-11-19T15:41:25;11.40;99.90
30308;DHT22;17114;52.314;8.910;2023-11-19T15:43:54;11.40;99.90
30308;DHT22;17114;52.314;8.910;2023-11-19T15:46:21;11.40;99.90
30308;DHT22;17114;52.314;8.910;2023-11-19T15:48:49;11.40;99.90
30308;DHT22;17114;52.314;8.910;2023-11-19T15:51:16;11.30;99.90
30308;DHT22;17114;52.314;8.910;2023-11-19T15:53:44;11.30;99.90
30308;DHT22;17114;52.314;8.910;2023-11-19T15:56:13;11.30;99.90
30308;DHT22;17114;52.314;8.910;2023-11-19T15:58:41;11.30;99.90
30308;DHT22;17114;52.314;8.910;2023-11-19T16:01:08;11.30;99.90
30308;DHT22;17114;52.314;8.910;2023-11-19T16:03:38;11.20;99.90